Time;durP1;ratioP1;P1;durP2;ratioP2;P2;SDS_P1;SDS_P2;PMS_P1;PMS_P2;Temp;Humidity;BMP_temperature;BMP_pressure;BME280_temperature;BME280_humidity;BME280_pressure;Samples;Min_cycle;Max_cycle;Signal;HPM_P1;HPM_P2
2022/08/16 00:01:48;;;;;;;11.50;9.10;;;20.60;99.90;;;;;;5052817;28;20496;-72
2022/08/16 00:04:14;;;;;;;8.60;7.80;;;20.60;99.90;;;;;;5044529;28;20475;-72
2022/08/16 00:06:41;;;;;;;11.87;10.03;;;20.60;99.90;;;;;;5031945;28;20407;-78
2022/08/16 00:09:07;;;;;;;22.50;8.90;;;20.50;99.90;;;;;;5038808;28;20453;-72
2022/08/16 00:11:34;;;;;;;14.27;10.67;;;20.50;99.90;;;;;;5053101;28;20413;-78
2022/08/16 00:13:59;;;;;;;13.13;9.77;;;20.40;99.90;;;;;;5047292;28;21005;-72
2022/08/16 00:16:27;;;;;;;10.57;8.50;;;20.50;99.90;;;;;;5034818;28;20414;-79
2022/08/16 00:18:53;;;;;;;11.63;9.80;;;20.50;99.90;;;;;;5043248;28;20197;-79
2022/08/16 00:21:18;;;;;;;13.60;10.13;;;20.50;99.90;;;;;;5056294;28;20488;-78
2022/08/16 00:23:44;;;;;;;12.57;10.63;;;20.50;99.90;;;;;;5050714;28;20171;-78
2022/08/16 00:26:10;;;;;;;12.13;9.37;;;20.50;99.90;;;;;;5035113;28;20241;-73
2022/08/16 00:28:36;;;;;;;12.43;10.10;;;20.50;99.90;;;;;;5046963;28;20679;-79
2022/08/16 00:31:02;;;;;;;12.03;10.10;;;20.50;99.90;;;;;;5036245;28;20438;-78
2022/08/16 00:33:28;;;;;;;14.93;11.30;;;20.50;99.90;;;;;;5035237;28;20172;-73
2022/08/16 00:35:53;;;;;;;14.63;11.80;;;20.50;99.90;;;;;;5055265;28;20523;-78
2022/08/16 00:38:19;;;;;;;16.17;11.27;;;20.50;99.90;;;;;;5055067;28;20190;-72
2022/08/16 00:40:49;;;;;;;15.37;11.70;;;20.50;99.90;;;;;;5037420;28;20517;-72
2022/08/16 00:43:22;;;;;;;16.47;12.87;;;20.60;99.90;;;;;;5043557;28;20183;-79
2022/08/16 00:45:52;;;;;;;16.70;12.63;;;20.60;99.90;;;;;;5055894;28;20766;-72
2022/08/16 00:48:19;;;;;;;16.50;14.03;;;20.60;99.90;;;;;;5046869;28;20426;-74
2022/08/16 00:50:45;;;;;;;21.70;15.50;;;20.60;99.90;;;;;;5035556;28;20418;-79
2022/08/16 00:53:14;;;;;;;16.97;13.10;;;20.60;99.90;;;;;;5041366;28;20543;-72
2022/08/16 00:55:45;;;;;;;14.20;11.80;;;20.70;99.90;;;;;;5055498;28;20453;-79
2022/08/16 00:58:11;;;;;;;21.87;14.40;;;20.70;99.90;;;;;;5048637;28;20499;-71
2022/08/16 01:00:37;;;;;;;19.63;13.60;;;20.80;99.90;;;;;;5036157;28;20409;-73
2022/08/16 01:03:08;;;;;;;17.67;15.03;;;20.80;99.90;;;;;;5038315;28;20437;-72
2022/08/16 01:05:34;;;;;;;17.83;14.60;;;20.80;99.90;;;;;;5055773;28;20414;-78
2022/08/16 01:08:01;;;;;;;20.20;14.80;;;20.80;99.90;;;;;;5050677;28;20430;-72
2022/08/16 01:10:30;;;;;;;20.40;15.13;;;20.80;99.90;;;;;;5035063;28;20482;-78
2022/08/16 01:12:57;;;;;;;19.40;14.90;;;20.80;99.90;;;;;;5041123;28;20439;-78
2022/08/16 01:15:24;;;;;;;21.87;16.13;;;20.80;99.90;;;;;;5055023;28;20449;-79
2022/08/16 01:17:51;;;;;;;14.83;13.30;;;20.80;99.90;;;;;;5052408;28;20433;-71
2022/08/16 01:20:20;;;;;;;17.37;14.20;;;20.90;99.90;;;;;;5054972;28;20411;-72
2022/08/16 01:22:56;;;;;;;17.30;14.63;;;20.80;99.90;;;;;;5042727;28;20410;-78
2022/08/16 01:25:27;;;;;;;21.53;15.60;;;20.80;99.90;;;;;;5034457;28;20402;-77
2022/08/16 01:27:55;;;;;;;20.70;15.57;;;20.80;99.90;;;;;;5045534;28;20532;-71
2022/08/16 01:30:28;;;;;;;20.30;16.13;;;20.70;99.90;;;;;;5053595;28;20414;-78
2022/08/16 01:32:58;;;;;;;21.30;16.13;;;20.80;99.90;;;;;;5042035;28;20766;-79
2022/08/16 01:35:52;;;;;;;18.30;15.27;;;20.80;99.90;;;;;;5034694;28;20499;-71
2022/08/16 01:38:23;;;;;;;26.40;16.47;;;20.80;99.90;;;;;;5045633;28;20441;-79
2022/08/16 01:40:50;;;;;;;19.47;16.57;;;20.70;99.90;;;;;;5053325;28;20508;-73
2022/08/16 01:43:16;;;;;;;23.63;18.17;;;20.80;99.90;;;;;;5039261;28;20934;-78
2022/08/16 01:45:43;;;;;;;25.37;18.17;;;20.70;99.90;;;;;;5033303;28;20517;-78
2022/08/16 01:48:09;;;;;;;21.80;18.07;;;20.70;99.90;;;;;;5045192;28;20233;-79
2022/08/16 01:50:35;;;;;;;22.10;19.33;;;20.70;99.90;;;;;;5054656;28;20397;-71
2022/08/16 01:53:02;;;;;;;23.03;18.47;;;20.70;99.90;;;;;;5042736;28;20462;-78
2022/08/16 01:55:27;;;;;;;26.93;18.40;;;20.70;99.90;;;;;;5033159;28;20454;-71
2022/08/16 01:57:53;;;;;;;19.93;17.83;;;20.70;99.90;;;;;;5041650;28;20452;-71
2022/08/16 02:00:19;;;;;;;19.30;16.40;;;20.70;99.90;;;;;;5053215;28;20174;-72
2022/08/16 02:02:45;;;;;;;21.87;17.47;;;20.70;99.90;;;;;;5052212;28;20217;-78
2022/08/16 02:05:12;;;;;;;21.90;17.60;;;20.70;99.90;;;;;;5051480;28;20414;-72
2022/08/16 02:07:38;;;;;;;24.30;16.97;;;20.70;99.90;;;;;;5051873;28;20213;-78
2022/08/16 02:10:06;;;;;;;26.50;18.43;;;20.80;99.90;;;;;;5049933;28;20937;-78
2022/08/16 02:12:33;;;;;;;25.10;18.07;;;20.70;99.90;;;;;;5034324;28;20528;-79
2022/08/16 02:14:59;;;;;;;24.47;18.40;;;20.70;99.90;;;;;;5033917;28;20478;-78
2022/08/16 02:17:26;;;;;;;22.33;18.43;;;20.80;99.90;;;;;;5051157;28;20919;-72
2022/08/16 02:19:52;;;;;;;20.80;17.33;;;20.80;99.90;;;;;;5053776;28;20401;-77
2022/08/16 02:22:21;;;;;;;28.73;19.30;;;20.80;99.90;;;;;;5053366;28;20413;-78
2022/08/16 02:24:46;;;;;;;19.03;16.47;;;20.70;99.90;;;;;;5050128;28;20413;-71
2022/08/16 02:27:13;;;;;;;23.87;18.63;;;20.80;99.90;;;;;;5031563;28;20472;-78
2022/08/16 02:29:39;;;;;;;21.70;18.00;;;20.70;99.90;;;;;;5034267;28;20254;-72
2022/08/16 02:32:07;;;;;;;24.07;18.20;;;20.80;99.90;;;;;;5053521;28;20402;-71
2022/08/16 02:34:33;;;;;;;21.30;19.00;;;20.70;99.90;;;;;;5053510;28;20448;-72
2022/08/16 02:36:59;;;;;;;22.13;18.57;;;20.60;99.90;;;;;;5032739;28;20762;-78
2022/08/16 02:39:24;;;;;;;25.97;20.20;;;20.60;99.90;;;;;;5033178;28;20221;-72
2022/08/16 02:41:52;;;;;;;22.63;17.83;;;20.50;99.90;;;;;;5053192;28;20258;-78
2022/08/16 02:44:18;;;;;;;22.03;18.23;;;20.50;99.90;;;;;;5036784;28;20202;-71
2022/08/16 02:46:45;;;;;;;22.97;17.73;;;20.50;99.90;;;;;;5032760;28;20763;-70
2022/08/16 02:49:11;;;;;;;22.73;18.33;;;20.50;99.90;;;;;;5045881;28;20440;-78
2022/08/16 02:51:39;;;;;;;21.30;18.37;;;20.50;99.90;;;;;;5052207;28;20421;-73
2022/08/16 02:54:06;;;;;;;25.07;18.37;;;20.40;99.90;;;;;;5051470;28;20437;-78
2022/08/16 02:56:33;;;;;;;23.33;18.13;;;20.40;99.90;;;;;;5050924;28;20409;-73
2022/08/16 02:58:59;;;;;;;22.60;17.73;;;20.40;99.90;;;;;;5042166;28;20427;-71
2022/08/16 03:01:29;;;;;;;29.90;19.10;;;20.40;99.90;;;;;;5032297;28;20802;-72
2022/08/16 03:03:58;;;;;;;32.50;18.33;;;20.30;99.90;;;;;;5042955;28;20428;-78
2022/08/16 03:06:25;;;;;;;27.00;20.00;;;20.30;99.90;;;;;;5052489;28;20402;-71
2022/08/16 03:08:51;;;;;;;25.30;20.10;;;20.30;99.90;;;;;;5043000;28;21260;-78
2022/08/16 03:11:19;;;;;;;29.63;21.43;;;20.30;99.90;;;;;;5032324;28;20406;-79
2022/08/16 03:13:47;;;;;;;27.93;22.17;;;20.30;99.90;;;;;;5040270;28;20495;-73
2022/08/16 03:16:14;;;;;;;26.77;19.67;;;20.40;99.90;;;;;;5051864;28;20406;-77
2022/08/16 03:18:40;;;;;;;30.07;21.47;;;20.40;99.90;;;;;;5045446;28;20969;-72
2022/08/16 03:21:06;;;;;;;26.50;20.07;;;20.30;99.90;;;;;;5032983;28;20437;-77
2022/08/16 03:23:33;;;;;;;29.47;21.40;;;20.30;99.90;;;;;;5036484;28;20418;-78
2022/08/16 03:25:59;;;;;;;31.83;22.73;;;20.40;99.90;;;;;;5052658;28;20798;-72
2022/08/16 03:28:25;;;;;;;39.57;23.70;;;20.40;99.90;;;;;;5049457;28;20441;-67
2022/08/16 03:30:51;;;;;;;40.20;26.30;;;20.30;99.90;;;;;;5031892;28;20931;-72
2022/08/16 03:33:17;;;;;;;39.57;24.50;;;20.10;1.00;;;;;;5033945;28;20290;-69
2022/08/16 03:35:43;;;;;;;34.23;23.40;;;20.10;1.00;;;;;;5051179;28;20471;-72
2022/08/16 03:38:13;;;;;;;39.93;24.80;;;20.00;1.00;;;;;;5048298;28;20195;-70
2022/08/16 03:40:41;;;;;;;34.00;24.10;;;20.00;1.00;;;;;;5031772;28;20859;-73
2022/08/16 03:43:09;;;;;;;34.07;24.53;;;20.00;1.00;;;;;;5035343;28;20442;-71
2022/08/16 03:45:36;;;;;;;39.47;25.93;;;20.10;1.00;;;;;;5051657;28;20539;-71
2022/08/16 03:48:03;;;;;;;34.63;24.87;;;20.10;1.00;;;;;;5053210;28;20429;-72
2022/08/16 03:50:30;;;;;;;45.30;25.97;;;20.10;1.00;;;;;;5035535;28;20428;-73
2022/08/16 03:52:57;;;;;;;37.57;24.50;;;20.10;10.20;;;;;;5039676;28;20425;-72
2022/08/16 03:55:23;;;;;;;42.87;28.00;;;20.10;37.80;;;;;;5056386;28;20536;-74
2022/08/16 03:57:50;;;;;;;34.20;26.07;;;20.10;54.80;;;;;;5052260;28;20519;-72
2022/08/16 04:00:20;;;;;;;33.10;23.73;;;20.20;70.50;;;;;;5036531;28;20168;-73
2022/08/16 04:02:46;;;;;;;30.10;23.13;;;20.20;88.60;;;;;;5036606;28;20442;-72
2022/08/16 04:05:14;;;;;;;32.97;23.90;;;20.20;90.70;;;;;;5055234;28;20500;-74
2022/08/16 04:07:40;;;;;;;39.00;25.37;;;20.20;97.90;;;;;;5053960;28;20431;-73
2022/08/16 04:10:08;;;;;;;33.80;23.03;;;20.20;99.90;;;;;;5036451;28;20789;-74
2022/08/16 04:12:34;;;;;;;28.57;22.70;;;20.20;99.90;;;;;;5034765;28;20490;-74
2022/08/16 04:15:01;;;;;;;29.47;21.70;;;20.20;99.90;;;;;;5053494;28;20540;-72
2022/08/16 04:17:28;;;;;;;25.77;21.20;;;20.20;99.90;;;;;;5055316;28;20528;-71
2022/08/16 04:19:54;;;;;;;26.97;19.13;;;20.20;99.90;;;;;;5037718;28;20414;-75
2022/08/16 04:22:20;;;;;;;28.63;17.30;;;20.20;99.90;;;;;;5036208;28;20397;-74
2022/08/16 04:24:46;;;;;;;17.13;14.87;;;20.20;99.90;;;;;;5051356;28;20417;-71
2022/08/16 04:27:12;;;;;;;26.20;15.97;;;20.10;99.90;;;;;;5055189;28;20872;-71
2022/08/16 04:29:37;;;;;;;24.47;16.43;;;20.00;99.90;;;;;;5045708;28;20604;-72
2022/08/16 04:32:04;;;;;;;20.60;14.80;;;20.00;99.90;;;;;;5052028;28;20179;-71
2022/08/16 04:34:38;;;;;;;20.63;15.27;;;19.90;99.90;;;;;;5055756;28;20191;-70
2022/08/16 04:37:05;;;;;;;19.90;15.40;;;20.00;99.90;;;;;;5054115;28;20417;-70
2022/08/16 04:39:33;;;;;;;24.17;17.70;;;20.00;99.90;;;;;;5054498;28;20894;-71
2022/08/16 04:41:59;;;;;;;32.60;19.50;;;19.90;99.90;;;;;;5053871;28;20455;-71
2022/08/16 04:44:25;;;;;;;32.73;20.93;;;19.90;99.90;;;;;;5054546;28;20417;-73
2022/08/16 04:46:51;;;;;;;28.50;20.17;;;19.90;99.90;;;;;;5042776;28;20229;-70
2022/08/16 04:49:18;;;;;;;30.30;20.70;;;19.90;99.90;;;;;;5039332;28;20289;-71
2022/08/16 04:51:43;;;;;;;35.70;23.67;;;19.90;99.90;;;;;;5055060;28;20417;-72
2022/08/16 04:54:10;;;;;;;32.73;22.73;;;19.90;99.90;;;;;;5050264;28;20792;-70
2022/08/16 04:56:36;;;;;;;40.23;23.20;;;19.90;99.90;;;;;;5033680;28;20203;-72
2022/08/16 04:59:03;;;;;;;36.43;24.50;;;19.90;99.90;;;;;;5035646;28;20989;-70
2022/08/16 05:01:28;;;;;;;33.40;22.80;;;19.90;99.90;;;;;;5055557;28;20402;-73
2022/08/16 05:03:54;;;;;;;38.70;25.47;;;19.90;99.90;;;;;;5053655;28;20465;-72
2022/08/16 05:06:20;;;;;;;38.50;24.67;;;19.90;99.90;;;;;;5034666;28;20859;-70
2022/08/16 05:08:46;;;;;;;34.30;23.57;;;19.90;99.90;;;;;;5033776;28;20207;-73
2022/08/16 05:11:12;;;;;;;37.17;25.30;;;19.90;99.90;;;;;;5052471;28;20170;-70
2022/08/16 05:13:42;;;;;;;38.87;23.97;;;19.90;99.90;;;;;;5053846;28;20654;-70
2022/08/16 05:16:18;;;;;;;40.90;27.37;;;19.90;99.90;;;;;;5035516;28;20410;-70
2022/08/16 05:18:44;;;;;;;36.93;25.53;;;19.90;99.90;;;;;;5035234;28;20405;-71
2022/08/16 05:21:10;;;;;;;37.70;25.90;;;19.90;99.90;;;;;;5050569;28;20470;-71
2022/08/16 05:23:36;;;;;;;38.37;27.57;;;20.00;99.90;;;;;;5053812;28;20500;-74
2022/08/16 05:26:02;;;;;;;37.27;25.90;;;20.00;99.90;;;;;;5038426;28;20422;-71
2022/08/16 05:28:27;;;;;;;42.47;27.20;;;20.00;99.90;;;;;;5033566;28;20645;-74
2022/08/16 05:30:53;;;;;;;39.53;25.87;;;20.00;99.90;;;;;;5047724;28;20194;-71
2022/08/16 05:33:20;;;;;;;40.20;24.37;;;20.10;99.90;;;;;;5053531;28;20181;-74
2022/08/16 05:35:47;;;;;;;35.27;25.20;;;20.00;99.90;;;;;;5042973;28;20265;-74
2022/08/16 05:38:13;;;;;;;44.43;25.80;;;20.00;99.90;;;;;;5033990;28;20440;-75
2022/08/16 05:40:39;;;;;;;35.37;24.93;;;20.00;99.90;;;;;;5043229;28;20426;-71
2022/08/16 05:43:05;;;;;;;33.60;24.60;;;20.10;99.90;;;;;;5054512;28;20496;-74
2022/08/16 05:45:31;;;;;;;34.77;26.50;;;20.00;99.90;;;;;;5033565;28;20457;-74
2022/08/16 05:47:57;;;;;;;39.87;25.23;;;20.00;99.90;;;;;;5032286;28;20199;-73
2022/08/16 05:50:22;;;;;;;37.03;23.70;;;20.10;99.90;;;;;;5052054;28;20241;-74
2022/08/16 05:52:48;;;;;;;35.90;24.50;;;20.10;99.90;;;;;;5054381;28;20174;-74
2022/08/16 05:55:15;;;;;;;32.33;25.10;;;20.10;99.90;;;;;;5038016;28;20203;-74
2022/08/16 05:57:41;;;;;;;33.63;25.20;;;20.10;99.90;;;;;;5033554;28;20195;-74
2022/08/16 06:00:10;;;;;;;39.40;26.10;;;20.10;99.90;;;;;;5048424;28;20413;-74
2022/08/16 06:02:36;;;;;;;40.30;26.97;;;20.20;99.90;;;;;;5053021;28;20520;-73
2022/08/16 06:05:03;;;;;;;34.30;25.77;;;20.20;99.90;;;;;;5036682;28;20425;-74
2022/08/16 06:07:29;;;;;;;34.80;25.67;;;20.20;99.90;;;;;;5033789;28;20426;-74
2022/08/16 06:09:57;;;;;;;35.77;25.90;;;20.10;99.90;;;;;;5053459;28;20429;-74
2022/08/16 06:12:22;;;;;;;31.97;23.70;;;20.10;99.90;;;;;;5054219;28;20174;-74
2022/08/16 06:14:48;;;;;;;36.37;25.03;;;20.10;99.90;;;;;;5034397;28;20454;-74
2022/08/16 06:17:15;;;;;;;43.07;26.57;;;20.10;99.90;;;;;;5031756;28;20176;-75
2022/08/16 06:19:42;;;;;;;36.83;27.00;;;20.10;99.90;;;;;;5051468;28;20658;-75
2022/08/16 06:22:08;;;;;;;35.87;26.23;;;20.20;99.90;;;;;;5052784;28;20806;-75
2022/08/16 06:24:34;;;;;;;41.53;28.17;;;20.20;99.90;;;;;;5037443;28;20497;-75
2022/08/16 06:27:00;;;;;;;38.90;26.87;;;20.20;99.90;;;;;;5031804;28;20410;-75
2022/08/16 06:29:26;;;;;;;41.00;27.63;;;20.10;99.90;;;;;;5047683;28;20503;-75
2022/08/16 06:31:52;;;;;;;43.33;27.80;;;20.10;99.90;;;;;;5052471;28;20449;-75
2022/08/16 06:34:18;;;;;;;39.30;26.40;;;20.20;99.90;;;;;;5039635;28;20199;-75
2022/08/16 06:36:44;;;;;;;44.47;27.80;;;20.20;99.90;;;;;;5031613;28;20476;-74
2022/08/16 06:39:09;;;;;;;39.10;27.70;;;20.20;99.90;;;;;;5043920;28;20233;-74
2022/08/16 06:41:35;;;;;;;40.67;27.10;;;20.20;99.90;;;;;;5044111;28;20206;-75
2022/08/16 06:44:01;;;;;;;42.27;27.70;;;20.30;99.90;;;;;;5031895;28;20628;-72
2022/08/16 06:46:36;;;;;;;40.37;27.77;;;20.40;99.90;;;;;;5031490;28;20230;-76
2022/08/16 06:49:05;;;;;;;46.50;29.80;;;20.40;99.90;;;;;;5033550;28;20191;-72
2022/08/16 06:51:31;;;;;;;44.57;28.07;;;20.50;99.90;;;;;;5032158;28;20415;-73
2022/08/16 06:53:56;;;;;;;38.73;29.23;;;20.60;99.90;;;;;;5033620;28;20453;-76
2022/08/16 06:56:22;;;;;;;38.67;27.20;;;20.60;99.90;;;;;;5033305;28;20739;-73
2022/08/16 06:58:48;;;;;;;42.07;27.67;;;20.70;99.90;;;;;;5033329;28;20190;-72
2022/08/16 07:01:14;;;;;;;39.47;25.80;;;20.70;99.90;;;;;;5032991;28;20221;-76
2022/08/16 07:03:39;;;;;;;48.37;28.13;;;20.70;99.90;;;;;;5033424;28;20159;-73
2022/08/16 07:06:05;;;;;;;37.63;25.77;;;20.70;99.90;;;;;;5031656;28;20182;-70
2022/08/16 07:08:31;;;;;;;35.30;25.50;;;20.70;99.90;;;;;;5033275;28;20187;-72
2022/08/16 07:10:57;;;;;;;40.70;26.77;;;20.80;99.90;;;;;;5033409;28;20160;-73
2022/08/16 07:13:23;;;;;;;33.90;26.67;;;20.80;99.90;;;;;;5033343;28;20174;-75
2022/08/16 07:15:50;;;;;;;41.20;27.43;;;20.80;99.90;;;;;;5031821;28;20468;-73
2022/08/16 07:18:19;;;;;;;38.27;26.90;;;20.90;99.90;;;;;;5032004;28;20418;-73
2022/08/16 07:20:46;;;;;;;31.90;23.83;;;20.90;99.90;;;;;;5033331;28;20398;-73
2022/08/16 07:23:12;;;;;;;41.03;25.93;;;21.00;99.90;;;;;;5036858;28;20394;-72
2022/08/16 07:25:38;;;;;;;34.00;25.80;;;21.00;99.90;;;;;;5037338;28;20910;-76
2022/08/16 07:28:04;;;;;;;37.27;26.10;;;21.00;99.90;;;;;;5036518;28;20422;-72
2022/08/16 07:30:31;;;;;;;40.40;25.13;;;21.00;99.90;;;;;;5037265;28;20174;-71
2022/08/16 07:32:57;;;;;;;35.23;25.80;;;21.10;99.90;;;;;;5036994;28;20468;-72
2022/08/16 07:35:24;;;;;;;34.80;24.53;;;21.10;99.90;;;;;;5036630;28;20962;-76
2022/08/16 07:37:50;;;;;;;34.53;24.33;;;21.20;99.90;;;;;;5035038;28;20422;-73
2022/08/16 07:40:16;;;;;;;35.50;24.27;;;21.20;99.90;;;;;;5037004;28;20410;-76
2022/08/16 07:42:41;;;;;;;35.03;24.23;;;21.20;99.90;;;;;;5035759;28;20183;-73
2022/08/16 07:45:08;;;;;;;27.80;23.20;;;21.30;99.90;;;;;;5036983;28;20414;-74
2022/08/16 07:47:34;;;;;;;34.93;25.33;;;21.20;99.90;;;;;;5036114;28;20225;-74
2022/08/16 07:50:03;;;;;;;32.10;22.60;;;21.30;99.90;;;;;;5036696;28;20414;-76
2022/08/16 07:52:29;;;;;;;31.40;22.30;;;21.40;99.90;;;;;;5036559;28;20168;-75
2022/08/16 07:54:54;;;;;;;31.30;24.27;;;21.40;99.90;;;;;;5036494;28;20519;-73
2022/08/16 07:57:20;;;;;;;29.07;22.60;;;21.50;99.90;;;;;;5036041;28;20182;-76
2022/08/16 07:59:46;;;;;;;27.67;21.00;;;21.50;99.90;;;;;;5052250;28;20254;-73
2022/08/16 08:02:12;;;;;;;24.90;20.20;;;21.60;99.90;;;;;;5054921;28;20163;-74
2022/08/16 08:04:39;;;;;;;27.30;22.97;;;21.60;99.90;;;;;;5056753;28;20193;-76
2022/08/16 08:07:04;;;;;;;31.20;22.70;;;21.60;99.90;;;;;;5055759;28;20428;-74
2022/08/16 08:09:30;;;;;;;27.90;20.73;;;21.60;99.90;;;;;;5056313;28;20456;-74
2022/08/16 08:11:56;;;;;;;31.83;20.10;;;21.70;99.90;;;;;;5056162;28;20253;-73
2022/08/16 08:14:22;;;;;;;46.67;21.10;;;21.80;99.90;;;;;;5056397;28;20614;-76
2022/08/16 08:16:49;;;;;;;27.17;20.77;;;21.80;99.90;;;;;;5055703;28;20209;-73
2022/08/16 08:19:14;;;;;;;28.97;20.53;;;21.80;99.90;;;;;;5056414;28;20198;-76
2022/08/16 08:21:41;;;;;;;33.80;19.43;;;21.90;99.90;;;;;;5056323;28;20398;-74
2022/08/16 08:24:08;;;;;;;25.00;20.80;;;21.90;99.90;;;;;;5057031;28;20913;-76
2022/08/16 08:26:34;;;;;;;25.43;19.80;;;22.00;99.90;;;;;;5055326;28;20421;-74
2022/08/16 08:29:01;;;;;;;22.27;18.40;;;22.10;99.90;;;;;;5055442;28;20425;-74
2022/08/16 08:31:27;;;;;;;25.47;20.00;;;22.20;99.90;;;;;;5056033;28;20405;-75
2022/08/16 08:33:55;;;;;;;25.20;19.10;;;22.30;99.90;;;;;;5055398;28;20409;-77
2022/08/16 08:36:29;;;;;;;20.57;17.93;;;22.40;99.90;;;;;;5054922;28;20409;-74
2022/08/16 08:38:55;;;;;;;21.50;17.63;;;22.50;99.90;;;;;;5055853;28;20420;-76
2022/08/16 08:41:23;;;;;;;21.37;17.20;;;22.60;99.90;;;;;;5055945;28;20417;-73
2022/08/16 08:43:48;;;;;;;19.17;16.53;;;22.70;99.90;;;;;;5055547;28;20177;-75
2022/08/16 08:46:14;;;;;;;19.97;16.70;;;22.80;90.30;;;;;;5055009;28;20397;-76
2022/08/16 08:48:40;;;;;;;21.77;16.27;;;22.80;57.90;;;;;;5055046;28;20187;-76
2022/08/16 08:51:08;;;;;;;18.60;16.10;;;22.90;45.70;;;;;;5055679;28;20175;-77
2022/08/16 08:53:34;;;;;;;19.33;15.20;;;23.00;19.70;;;;;;5055589;28;20167;-78
2022/08/16 08:56:02;;;;;;;15.80;14.07;;;23.20;13.50;;;;;;5053587;28;20921;-72
2022/08/16 08:58:28;;;;;;;22.80;14.27;;;23.30;1.00;;;;;;5055305;28;20445;-73
2022/08/16 09:00:55;;;;;;;15.97;14.13;;;23.50;1.00;;;;;;5055395;28;20452;-77
2022/08/16 09:03:21;;;;;;;15.10;13.50;;;23.60;1.00;;;;;;5055966;28;20165;-77
2022/08/16 09:05:49;;;;;;;14.30;12.27;;;23.80;1.00;;;;;;5054860;28;20949;-78
2022/08/16 09:08:16;;;;;;;15.17;13.57;;;24.00;1.00;;;;;;5054755;28;20425;-70
2022/08/16 09:10:42;;;;;;;13.30;11.37;;;24.20;99.90;;;;;;5054917;28;20891;-78
2022/08/16 09:13:08;;;;;;;13.57;12.20;;;24.40;99.90;;;;;;5055174;28;20398;-69
2022/08/16 09:15:34;;;;;;;11.83;10.40;;;24.50;99.90;;;;;;5055087;28;20514;-68
2022/08/16 09:18:02;;;;;;;12.17;10.67;;;24.60;99.90;;;;;;5054491;28;20198;-68
2022/08/16 09:20:28;;;;;;;12.80;9.93;;;24.70;99.90;;;;;;5055188;28;20167;-69
2022/08/16 09:22:55;;;;;;;13.90;10.73;;;25.00;99.90;;;;;;5054551;28;20560;-68
2022/08/16 09:25:22;;;;;;;13.60;9.27;;;25.20;99.90;;;;;;5055509;28;20397;-69
2022/08/16 09:27:47;;;;;;;13.47;11.00;;;25.30;99.90;;;;;;5054172;28;20441;-76
2022/08/16 09:30:13;;;;;;;11.60;10.60;;;25.40;96.60;;;;;;5054989;28;20401;-69
2022/08/16 09:32:39;;;;;;;12.73;9.80;;;25.40;78.50;;;;;;5054835;28;20686;-76
2022/08/16 09:35:06;;;;;;;14.03;11.73;;;25.30;97.60;;;;;;5054792;28;20698;-68
2022/08/16 09:37:32;;;;;;;17.70;11.50;;;25.30;96.50;;;;;;5052387;28;20636;-68
2022/08/16 09:39:59;;;;;;;13.70;11.37;;;25.40;97.70;;;;;;5054799;28;20894;-76
2022/08/16 09:42:25;;;;;;;13.20;10.50;;;25.60;97.70;;;;;;5054322;28;20402;-68
2022/08/16 09:44:51;;;;;;;14.37;13.07;;;25.80;98.90;;;;;;5053635;28;20448;-76
2022/08/16 09:47:17;;;;;;;13.13;11.47;;;26.00;52.80;;;;;;5053884;28;20414;-68
2022/08/16 09:49:44;;;;;;;17.10;14.53;;;26.40;92.90;;;;;;5053792;28;20475;-68
2022/08/16 09:52:10;;;;;;;12.50;11.20;;;26.70;32.50;;;;;;5054543;28;20220;-67
2022/08/16 09:54:39;;;;;;;16.13;11.77;;;26.80;1.00;;;;;;5054374;28;20456;-67
2022/08/16 09:57:06;;;;;;;13.50;11.43;;;26.60;1.00;;;;;;5053626;28;20397;-76
2022/08/16 09:59:32;;;;;;;13.67;10.70;;;26.70;1.00;;;;;;5054540;28;20409;-74
2022/08/16 10:01:59;;;;;;;13.03;10.50;;;27.00;1.00;;;;;;5054748;28;20491;-66
2022/08/16 10:04:25;;;;;;;13.27;11.87;;;27.30;1.00;;;;;;5054490;28;20878;-76
2022/08/16 10:06:57;;;;;;;11.77;10.67;;;27.30;1.00;;;;;;5053619;28;20405;-75
2022/08/16 10:09:22;;;;;;;12.77;11.47;;;27.40;1.00;;;;;;5053887;28;20441;-68
2022/08/16 10:14:32;;;;;;;12.23;11.10;;;27.60;1.00;;;;;;5054054;28;20559;-76
2022/08/16 10:17:01;;;;;;;15.57;11.07;;;27.60;1.00;;;;;;5053370;28;20409;-67
2022/08/16 10:19:27;;;;;;;15.60;11.30;;;27.50;1.00;;;;;;5053457;28;20219;-76
2022/08/16 10:21:54;;;;;;;11.83;10.50;;;27.50;1.00;;;;;;5054038;28;20414;-68
2022/08/16 10:24:20;;;;;;;12.60;11.30;;;27.50;1.00;;;;;;5053482;28;20412;-77
2022/08/16 10:26:46;;;;;;;11.87;10.67;;;27.50;1.00;;;;;;5053322;28;20185;-76
2022/08/16 10:29:13;;;;;;;12.47;10.20;;;27.30;1.00;;;;;;5053511;28;20416;-68
2022/08/16 10:31:39;;;;;;;14.17;11.57;;;27.10;1.00;;;;;;5053958;28;20398;-68
2022/08/16 10:34:05;;;;;;;12.70;11.50;;;26.90;1.00;;;;;;5053705;28;20971;-69
2022/08/16 10:36:31;;;;;;;18.00;13.10;;;26.70;1.00;;;;;;5052543;28;20212;-67
2022/08/16 10:38:56;;;;;;;13.73;11.73;;;26.70;1.00;;;;;;5053774;28;20187;-76
2022/08/16 10:41:22;;;;;;;14.50;11.40;;;26.60;1.00;;;;;;5053516;28;20159;-70
2022/08/16 10:43:49;;;;;;;18.30;10.90;;;26.70;1.00;;;;;;5053631;28;20628;-69
2022/08/16 10:46:15;;;;;;;11.13;10.00;;;27.10;1.00;;;;;;5052639;28;20408;-75
2022/08/16 10:48:43;;;;;;;18.50;10.57;;;27.40;1.00;;;;;;5052495;28;20508;-76
2022/08/16 10:51:10;;;;;;;15.33;11.33;;;27.80;1.00;;;;;;5053265;28;20405;-76
2022/08/16 10:53:36;;;;;;;11.60;10.43;;;28.00;1.00;;;;;;5053024;28;20393;-77
2022/08/16 10:56:06;;;;;;;16.43;10.57;;;27.90;1.00;;;;;;5052309;28;20460;-69
2022/08/16 10:58:32;;;;;;;10.73;9.73;;;27.70;1.00;;;;;;5053603;28;20903;-77
2022/08/16 11:00:58;;;;;;;14.20;9.27;;;27.70;1.00;;;;;;5053455;28;20401;-75
2022/08/16 11:03:25;;;;;;;11.23;9.90;;;27.70;1.00;;;;;;5053228;28;20409;-75
2022/08/16 11:05:51;;;;;;;11.10;9.83;;;28.00;1.00;;;;;;5053334;28;20416;-68
2022/08/16 11:08:16;;;;;;;11.13;9.03;;;27.90;1.00;;;;;;5051709;28;20933;-69
2022/08/16 11:10:44;;;;;;;12.83;9.53;;;28.20;1.00;;;;;;5053492;28;20265;-69
2022/08/16 11:13:17;;;;;;;11.30;9.90;;;28.60;1.00;;;;;;5052946;28;20163;-68
2022/08/16 11:15:43;;;;;;;10.60;8.60;;;29.10;1.00;;;;;;5054249;28;20457;-69
2022/08/16 11:18:10;;;;;;;10.30;9.27;;;29.50;1.00;;;;;;5052642;28;20906;-75
2022/08/16 11:20:35;;;;;;;9.53;8.53;;;29.60;1.00;;;;;;5053334;28;20402;-75
2022/08/16 11:23:01;;;;;;;10.17;9.20;;;29.30;1.00;;;;;;5052969;28;20386;-69
2022/08/16 11:25:29;;;;;;;9.30;8.50;;;29.20;1.00;;;;;;5053158;28;20198;-71
2022/08/16 11:27:56;;;;;;;11.23;9.40;;;29.10;1.00;;;;;;5052423;28;20198;-76
2022/08/16 11:30:24;;;;;;;11.97;9.70;;;29.50;1.00;;;;;;5051433;28;21097;-67
2022/08/16 11:32:50;;;;;;;10.00;9.07;;;29.80;1.00;;;;;;5051814;28;20453;-75
2022/08/16 11:35:25;;;;;;;9.63;8.63;;;29.60;1.00;;;;;;5053035;28;20872;-69
2022/08/16 11:38:01;;;;;;;8.57;7.70;;;29.10;1.00;;;;;;5052269;28;20646;-75
2022/08/16 11:40:30;;;;;;;8.83;7.90;;;28.70;1.00;;;;;;5053171;28;20416;-69
2022/08/16 11:42:57;;;;;;;10.37;9.37;;;28.40;1.00;;;;;;5053026;28;20408;-76
2022/08/16 11:45:23;;;;;;;9.83;8.80;;;28.30;1.00;;;;;;5053012;28;20411;-69
2022/08/16 11:47:49;;;;;;;8.23;7.53;;;28.40;1.00;;;;;;5052125;28;20413;-70
2022/08/16 11:50:16;;;;;;;9.07;7.70;;;28.70;1.00;;;;;;5052475;28;20163;-69
2022/08/16 11:52:41;;;;;;;8.60;7.90;;;28.80;1.00;;;;;;5051903;28;20945;-69
2022/08/16 11:55:11;;;;;;;8.20;7.50;;;29.10;1.00;;;;;;5052704;28;20440;-70
2022/08/16 11:57:38;;;;;;;8.90;8.00;;;30.00;1.00;;;;;;5051187;28;20395;-69
2022/08/16 12:00:12;;;;;;;10.47;7.57;;;30.80;99.90;;;;;;5053170;28;20631;-76
2022/08/16 12:02:38;;;;;;;9.43;6.77;;;31.50;99.90;;;;;;5052726;28;20412;-69
2022/08/16 12:05:10;;;;;;;8.27;7.40;;;31.90;99.90;;;;;;5052710;28;20403;-70
2022/08/16 12:07:36;;;;;;;7.00;6.40;;;32.10;99.90;;;;;;5052750;28;20876;-76
2022/08/16 12:10:05;;;;;;;7.60;6.87;;;32.20;99.90;;;;;;5056006;28;20421;-75
2022/08/16 12:12:31;;;;;;;6.90;6.33;;;32.10;99.90;;;;;;5056820;28;20167;-71
2022/08/16 12:14:57;;;;;;;7.97;7.10;;;31.90;99.90;;;;;;5056344;28;20452;-76
2022/08/16 12:17:23;;;;;;;7.03;6.37;;;32.30;99.90;;;;;;5055768;28;20232;-75
2022/08/16 12:19:48;;;;;;;8.97;6.40;;;32.80;99.90;;;;;;5056430;28;20627;-75
2022/08/16 12:22:15;;;;;;;7.03;6.43;;;33.40;99.90;;;;;;5056043;28;20552;-70
2022/08/16 12:24:41;;;;;;;7.53;6.73;;;33.80;99.90;;;;;;5055745;28;20198;-72
2022/08/16 12:27:07;;;;;;;6.70;6.10;;;34.00;99.90;;;;;;5055557;28;20439;-75
2022/08/16 12:29:32;;;;;;;7.33;6.60;;;33.60;99.90;;;;;;5054830;28;20624;-77
2022/08/16 12:31:58;;;;;;;9.10;7.07;;;33.50;99.90;;;;;;5056118;28;20175;-72